createdAt,value
2018-01-12T00:00:47.423Z,101170.27
2018-01-12T00:01:58.712Z,101172.02
2018-01-12T00:03:04.882Z,101170.26
2018-01-12T00:04:11.086Z,101180.23
2018-01-12T00:05:17.327Z,101174.16
2018-01-12T00:06:30.218Z,101173.31
2018-01-12T00:07:36.435Z,101179.37
2018-01-12T00:08:42.350Z,101176.34
2018-01-12T00:09:51.386Z,101176.33
2018-01-12T00:10:57.428Z,101180.63
2018-01-12T00:12:03.631Z,101185.39
2018-01-12T00:13:10.542Z,101181.52
2018-01-12T00:14:16.753Z,101190.60
2018-01-12T00:15:25.915Z,101186.67
2018-01-12T00:16:32.086Z,101188.86
2018-01-12T00:17:38.333Z,101189.74
2018-01-12T00:18:44.530Z,101181.51
2018-01-12T00:19:51.167Z,101188.85
2018-01-12T00:20:57.349Z,101194.90
2018-01-12T00:22:03.545Z,101184.54
2018-01-12T00:23:09.457Z,101188.84
2018-01-12T00:24:15.626Z,101190.55
2018-01-12T00:25:21.805Z,101193.14
2018-01-12T00:26:28.049Z,101189.67
2018-01-12T00:27:34.307Z,101187.53
2018-01-12T00:28:40.512Z,101189.25
2018-01-12T00:29:46.731Z,101189.69
2018-01-12T00:30:52.896Z,101184.47
2018-01-12T00:31:59.067Z,101191.38
2018-01-12T00:33:04.947Z,101190.08
2018-01-12T00:34:11.154Z,101187.95
2018-01-12T00:35:22.279Z,101187.08
2018-01-12T00:36:28.457Z,101184.03
2018-01-12T00:37:34.657Z,101188.81
2018-01-12T00:38:40.846Z,101190.98
2018-01-12T00:39:46.834Z,101192.70
2018-01-12T00:40:52.904Z,101193.57
2018-01-12T00:42:00.037Z,101195.31
2018-01-12T00:43:06.086Z,101198.77
2018-01-12T00:44:12.143Z,101195.30
2018-01-12T00:45:18.155Z,101196.59
2018-01-12T00:46:24.209Z,101197.05
2018-01-12T00:47:30.201Z,101199.66
2018-01-12T00:48:36.243Z,101193.16
2018-01-12T00:49:42.287Z,101199.22
2018-01-12T00:50:48.280Z,101193.14
2018-01-12T00:51:54.278Z,101202.23
2018-01-12T00:53:00.243Z,101203.53
2018-01-12T00:54:06.204Z,101208.29
2018-01-12T00:55:12.227Z,101207.02
2018-01-12T00:56:18.267Z,101212.63
2018-01-12T00:57:24.293Z,101211.77
2018-01-12T00:58:31.368Z,101218.24
2018-01-12T00:59:37.329Z,101216.08
2018-01-12T01:00:43.511Z,101216.95
2018-01-12T01:01:49.715Z,101215.25
2018-01-12T01:02:55.888Z,101223.44
2018-01-12T01:04:02.064Z,101217.83
2018-01-12T01:05:07.933Z,101218.69
2018-01-12T01:06:14.102Z,101226.46
2018-01-12T01:07:20.330Z,101226.48
2018-01-12T01:08:26.551Z,101226.05
2018-01-12T01:09:32.898Z,101231.69
2018-01-12T01:10:39.109Z,101232.11
2018-01-12T01:11:45.919Z,101233.39
2018-01-12T01:12:52.103Z,101236.86
2018-01-12T01:13:58.266Z,101236.41
2018-01-12T01:15:04.124Z,101233.84
2018-01-12T01:16:10.302Z,101233.41
2018-01-12T01:17:16.499Z,101230.82
2018-01-12T01:18:22.727Z,101242.48
2018-01-12T01:19:28.901Z,101243.34
2018-01-12T01:20:35.144Z,101248.08
2018-01-12T01:21:41.375Z,101240.75
2018-01-12T01:22:47.542Z,101246.78
2018-01-12T01:23:53.722Z,101245.06
2018-01-12T01:24:59.900Z,101247.20
2018-01-12T01:26:06.110Z,101251.53
2018-01-12T01:27:12.294Z,101251.55
2018-01-12T01:28:18.504Z,101257.59
2018-01-12T01:29:24.678Z,101256.30
2018-01-12T01:30:30.950Z,101255.01
2018-01-12T01:31:37.132Z,101252.86
2018-01-12T01:32:43.355Z,101255.44
2018-01-12T01:33:49.250Z,101256.75
2018-01-12T01:34:55.494Z,101258.45
2018-01-12T01:36:01.669Z,101255.88
2018-01-12T01:37:07.591Z,101256.30
2018-01-12T01:38:13.761Z,101261.92
2018-01-12T01:39:19.931Z,101256.30
2018-01-12T01:40:26.113Z,101263.65
2018-01-12T01:41:32.294Z,101264.95
2018-01-12T01:42:38.746Z,101264.93
2018-01-12T01:43:44.929Z,101271.87
2018-01-12T01:44:51.091Z,101270.13
2018-01-12T01:45:57.257Z,101272.75
2018-01-12T01:47:03.517Z,101267.54
2018-01-12T01:48:09.793Z,101274.05
2018-01-12T01:49:15.970Z,101269.27
2018-01-12T01:50:22.179Z,101270.16
2018-01-12T01:51:28.840Z,101271.02
2018-01-12T01:52:35.037Z,101270.55
2018-01-12T01:53:41.183Z,101276.64
2018-01-12T01:54:47.337Z,101273.61
2018-01-12T01:55:53.550Z,101278.37
2018-01-12T01:56:59.712Z,101277.50
2018-01-12T01:58:05.886Z,101277.48
2018-01-12T01:59:12.068Z,101280.95
2018-01-12T02:00:18.281Z,101281.83
2018-01-12T02:01:24.201Z,101283.12
2018-01-12T02:02:30.181Z,101285.27
2018-01-12T02:03:36.326Z,101286.99
2018-01-12T02:04:42.543Z,101287.86
2018-01-12T02:05:48.752Z,101288.72
2018-01-12T02:06:54.936Z,101283.98
2018-01-12T02:08:01.114Z,101290.48
2018-01-12T02:09:07.279Z,101291.31
2018-01-12T02:10:13.492Z,101293.50
2018-01-12T02:11:19.430Z,101293.05
2018-01-12T02:12:25.596Z,101293.91
2018-01-12T02:13:31.759Z,101290.89
2018-01-12T02:14:38.179Z,101296.52
2018-01-12T02:15:44.568Z,101298.67
2018-01-12T02:16:50.971Z,101300.00
2018-01-12T02:17:57.194Z,101302.16
2018-01-12T02:19:03.474Z,101299.55
2018-01-12T02:20:09.031Z,101302.14
2018-01-12T02:21:15.017Z,101301.28
2018-01-12T02:22:21.263Z,101300.42
2018-01-12T02:23:27.577Z,101298.67
2018-01-12T02:24:33.525Z,101293.93
2018-01-12T02:25:39.405Z,101302.15
2018-01-12T02:26:45.696Z,101296.08
2018-01-12T02:27:51.903Z,101295.65
2018-01-12T02:28:58.123Z,101297.81
2018-01-12T02:30:03.931Z,101303.85
2018-01-12T02:31:10.196Z,101303.88
2018-01-12T02:32:16.384Z,101299.55
2018-01-12T02:33:22.540Z,101303.88
2018-01-12T02:34:28.724Z,101303.88
2018-01-12T02:35:34.923Z,101309.91
2018-01-12T02:36:41.078Z,101303.88
2018-01-12T02:37:47.289Z,101311.22
2018-01-12T02:38:53.486Z,101305.16
2018-01-12T02:39:59.718Z,101308.17
2018-01-12T02:41:05.915Z,101309.02
2018-01-12T02:42:12.095Z,101312.42
2018-01-12T02:43:19.240Z,101314.59
2018-01-12T02:44:25.409Z,101313.30
2018-01-12T02:45:31.592Z,101311.17
2018-01-12T02:46:37.890Z,101309.44
2018-01-12T02:47:44.070Z,101309.89
2018-01-12T02:48:50.325Z,101313.77
2018-01-12T02:49:56.536Z,101314.22
2018-01-12T02:51:02.740Z,101303.83
2018-01-12T02:52:08.978Z,101307.73
2018-01-12T02:53:15.165Z,101306.42
2018-01-12T02:54:21.464Z,101308.61
2018-01-12T02:55:27.671Z,101310.78
2018-01-12T02:56:33.904Z,101316.41
2018-01-12T02:57:40.120Z,101314.23
2018-01-12T02:58:46.296Z,101313.38
2018-01-12T02:59:52.451Z,101315.50
2018-01-12T03:01:02.676Z,101312.92
2018-01-12T03:02:08.897Z,101311.63
2018-01-12T03:03:19.674Z,101318.11
2018-01-12T03:04:29.345Z,101312.91
2018-01-12T03:05:35.563Z,101314.61
2018-01-12T03:06:41.786Z,101317.21
2018-01-12T03:07:47.800Z,101315.91
2018-01-12T03:08:53.955Z,101318.52
2018-01-12T03:10:00.111Z,101316.78
2018-01-12T03:11:06.338Z,101316.79
2018-01-12T03:12:12.584Z,101315.48
2018-01-12T03:13:18.794Z,101320.68
2018-01-12T03:14:24.971Z,101328.87
2018-01-12T03:15:32.154Z,101325.88
2018-01-12T03:16:38.368Z,101324.98
2018-01-12T03:17:44.576Z,101323.70
2018-01-12T03:18:50.805Z,101318.91
2018-01-12T03:19:56.978Z,101321.09
2018-01-12T03:21:09.437Z,101318.91
2018-01-12T03:22:15.634Z,101321.09
2018-01-12T03:23:21.790Z,101323.25
2018-01-12T03:24:27.967Z,101315.03
2018-01-12T03:25:34.172Z,101317.59
2018-01-12T03:26:40.428Z,101324.95
2018-01-12T03:27:46.598Z,101319.30
2018-01-12T03:28:52.636Z,101321.85
2018-01-12T03:29:58.826Z,101322.28
2018-01-12T03:31:05.201Z,101322.30
2018-01-12T03:32:11.386Z,101325.33
2018-01-12T03:33:17.546Z,101321.02
2018-01-12T03:34:23.705Z,101325.79
2018-01-12T03:35:29.861Z,101324.48
2018-01-12T03:36:36.075Z,101326.64
2018-01-12T03:37:42.246Z,101321.47
2018-01-12T03:38:48.399Z,101327.52
2018-01-12T03:39:54.573Z,101322.76
2018-01-12T03:41:00.794Z,101328.78
2018-01-12T03:42:06.951Z,101330.93
2018-01-12T03:43:13.099Z,101329.61
2018-01-12T03:44:19.282Z,101331.41
2018-01-12T03:45:25.541Z,101330.53
2018-01-12T03:46:31.706Z,101332.30
2018-01-12T03:47:37.859Z,101335.77
2018-01-12T03:48:44.050Z,101336.20
2018-01-12T03:49:54.201Z,101337.47
2018-01-12T03:51:00.384Z,101334.45
2018-01-12T03:52:06.600Z,101336.16
2018-01-12T03:53:15.230Z,101340.06
2018-01-12T03:54:21.403Z,101337.89
2018-01-12T03:55:27.561Z,101341.28
2018-01-12T03:56:33.791Z,101333.51
2018-01-12T03:57:39.657Z,101342.56
2018-01-12T03:58:45.858Z,101345.61
2018-01-12T03:59:52.044Z,101344.35
2018-01-12T04:00:58.197Z,101347.80
2018-01-12T04:02:04.404Z,101351.27
2018-01-12T04:03:10.627Z,101347.82
2018-01-12T04:04:16.905Z,101349.13
2018-01-12T04:05:23.114Z,101350.00
2018-01-12T04:06:29.354Z,101353.91
2018-01-12T04:07:43.653Z,101362.55
2018-01-12T04:08:49.817Z,101358.66
2018-01-12T04:09:56.193Z,101359.51
2018-01-12T04:11:02.368Z,101363.41
2018-01-12T04:12:08.616Z,101362.11
2018-01-12T04:13:14.616Z,101364.70
2018-01-12T04:14:20.786Z,101359.56
2018-01-12T04:15:26.955Z,101362.13
2018-01-12T04:16:33.198Z,101360.75
2018-01-12T04:17:39.374Z,101363.27
2018-01-12T04:18:45.601Z,101362.47
2018-01-12T04:19:51.939Z,101359.50
2018-01-12T04:20:58.230Z,101356.00
2018-01-12T04:22:04.468Z,101359.90
2018-01-12T04:23:10.730Z,101367.72
2018-01-12T04:24:16.917Z,101358.18
2018-01-12T04:25:23.315Z,101361.22
2018-01-12T04:26:29.545Z,101358.21
2018-01-12T04:27:35.776Z,101360.80
2018-01-12T04:28:42.031Z,101361.25
2018-01-12T04:29:48.172Z,101357.78
2018-01-12T04:30:54.337Z,101361.69
2018-01-12T04:32:00.519Z,101360.83
2018-01-12T04:33:06.745Z,101362.95
2018-01-12T04:34:13.065Z,101362.55
2018-01-12T04:35:21.472Z,101362.49
2018-01-12T04:36:27.667Z,101360.32
2018-01-12T04:37:33.886Z,101365.95
2018-01-12T04:38:40.042Z,101365.98
2018-01-12T04:39:46.231Z,101366.00
2018-01-12T04:40:52.446Z,101362.11
2018-01-12T04:41:58.336Z,101368.60
2018-01-12T04:43:04.519Z,101370.28
2018-01-12T04:44:10.674Z,101371.16
2018-01-12T04:45:17.411Z,101368.98
2018-01-12T04:46:25.977Z,101371.62
2018-01-12T04:47:33.277Z,101370.30
2018-01-12T04:48:40.768Z,101376.33
2018-01-12T04:49:49.562Z,101371.12
2018-01-12T04:50:58.211Z,101368.09
2018-01-12T04:52:06.376Z,101373.63
2018-01-12T04:53:13.887Z,101373.23
2018-01-12T04:54:24.137Z,101372.81
2018-01-12T04:55:31.705Z,101376.73
2018-01-12T04:56:38.101Z,101375.44
2018-01-12T04:57:44.439Z,101379.34
2018-01-12T04:58:50.670Z,101372.44
2018-01-12T04:59:57.011Z,101372.46
2018-01-12T05:01:03.252Z,101372.03
2018-01-12T05:02:09.484Z,101369.41
2018-01-12T05:03:15.660Z,101372.00
2018-01-12T05:04:21.948Z,101371.09
2018-01-12T05:05:28.324Z,101370.68
2018-01-12T05:06:34.576Z,101373.28
2018-01-12T05:07:40.811Z,101373.31
2018-01-12T05:08:46.651Z,101371.98
2018-01-12T05:09:52.816Z,101372.87
2018-01-12T05:10:58.409Z,101368.97
2018-01-12T05:12:04.612Z,101371.99
2018-01-12T05:13:11.051Z,101374.19
2018-01-12T05:14:21.340Z,101371.60
2018-01-12T05:15:27.712Z,101373.31
2018-01-12T05:16:33.903Z,101374.19
2018-01-12T05:17:40.205Z,101374.59
2018-01-12T05:18:46.545Z,101374.66
2018-01-12T05:19:52.806Z,101373.80
2018-01-12T05:21:00.636Z,101372.95
2018-01-12T05:22:06.896Z,101376.39
2018-01-12T05:23:13.077Z,101379.43
2018-01-12T05:24:19.259Z,101376.86
2018-01-12T05:25:25.483Z,101386.77
2018-01-12T05:26:31.682Z,101386.74
2018-01-12T05:27:38.062Z,101388.08
2018-01-12T05:28:44.663Z,101384.62
2018-01-12T05:29:51.101Z,101384.20
2018-01-12T05:30:57.296Z,101385.50
2018-01-12T05:32:03.527Z,101385.94
2018-01-12T05:33:09.680Z,101389.39
2018-01-12T05:34:15.875Z,101386.80
2018-01-12T05:35:22.079Z,101394.16
2018-01-12T05:36:28.290Z,101390.69
2018-01-12T05:37:34.497Z,101387.23
2018-01-12T05:38:40.480Z,101392.00
2018-01-12T05:39:46.706Z,101396.74
2018-01-12T05:40:52.579Z,101389.41
2018-01-12T05:41:58.824Z,101393.28
2018-01-12T05:43:05.004Z,101398.02
2018-01-12T05:44:11.202Z,101395.44
2018-01-12T05:45:17.163Z,101398.02
2018-01-12T05:46:23.371Z,101398.91
2018-01-12T05:47:29.525Z,101401.47
2018-01-12T05:48:35.745Z,101396.77
2018-01-12T05:49:41.955Z,101401.08
2018-01-12T05:50:48.171Z,101395.45
2018-01-12T05:51:54.365Z,101400.63
2018-01-12T05:53:00.524Z,101399.33
2018-01-12T05:54:06.675Z,101399.31
2018-01-12T05:55:12.871Z,101407.53
2018-01-12T05:56:19.107Z,101415.32
2018-01-12T05:57:25.319Z,101411.00
2018-01-12T05:58:31.630Z,101410.13
2018-01-12T05:59:37.809Z,101417.50
2018-01-12T06:00:55.068Z,101416.65
2018-01-12T06:02:12.132Z,101418.80
2018-01-12T06:03:29.063Z,101421.82
2018-01-12T06:04:46.257Z,101424.40
2018-01-12T06:06:18.056Z,101428.28
2018-01-12T06:07:24.062Z,101427.01
2018-01-12T06:08:30.264Z,101424.83
2018-01-12T06:09:36.471Z,101427.86
2018-01-12T06:10:42.704Z,101432.64
2018-01-12T06:11:48.883Z,101435.20
2018-01-12T06:12:55.083Z,101435.67
2018-01-12T06:14:01.307Z,101434.38
2018-01-12T06:15:07.489Z,101437.38
2018-01-12T06:16:13.704Z,101441.27
2018-01-12T06:17:23.786Z,101433.92
2018-01-12T06:18:29.941Z,101435.25
2018-01-12T06:19:36.178Z,101442.16
2018-01-12T06:20:42.380Z,101443.03
2018-01-12T06:21:48.539Z,101438.27
2018-01-12T06:22:54.803Z,101443.86
2018-01-12T06:24:00.970Z,101445.13
2018-01-12T06:25:07.152Z,101451.20
2018-01-12T06:26:13.429Z,101452.53
2018-01-12T06:27:19.696Z,101454.27
2018-01-12T06:28:25.883Z,101453.42
2018-01-12T06:29:32.042Z,101452.11
2018-01-12T06:30:38.223Z,101457.31
2018-01-12T06:31:44.459Z,101456.88
2018-01-12T06:32:50.645Z,101456.88
2018-01-12T06:33:57.047Z,101465.53
2018-01-12T06:35:03.224Z,101458.11
2018-01-12T06:36:09.377Z,101465.88
2018-01-12T06:37:15.618Z,101465.05
2018-01-12T06:38:21.790Z,101461.60
2018-01-12T06:39:28.017Z,101457.28
2018-01-12T06:40:34.211Z,101460.74
2018-01-12T06:41:40.377Z,101459.02
2018-01-12T06:42:46.604Z,101462.09
2018-01-12T06:43:52.790Z,101463.80
2018-01-12T06:44:58.995Z,101462.05
2018-01-12T06:46:05.159Z,101465.51
2018-01-12T06:47:16.691Z,101469.38
2018-01-12T06:48:22.923Z,101473.73
2018-01-12T06:49:29.130Z,101468.97
2018-01-12T06:50:35.409Z,101469.83
2018-01-12T06:51:41.604Z,101478.47
2018-01-12T06:52:47.830Z,101477.19
2018-01-12T06:53:54.062Z,101479.77
2018-01-12T06:55:00.280Z,101481.91
2018-01-12T06:56:06.488Z,101481.05
2018-01-12T06:57:12.685Z,101481.86
2018-01-12T06:58:18.907Z,101482.63
2018-01-12T06:59:25.142Z,101485.23
2018-01-12T07:00:31.505Z,101490.84
2018-01-12T07:01:37.711Z,101492.13
2018-01-12T07:02:43.978Z,101494.71
2018-01-12T07:03:50.240Z,101490.89
2018-01-12T07:04:56.446Z,101495.69
2018-01-12T07:06:02.624Z,101497.02
2018-01-12T07:07:08.783Z,101496.56
2018-01-12T07:08:15.089Z,101492.66
2018-01-12T07:09:21.304Z,101495.23
2018-01-12T07:10:27.467Z,101496.56
2018-01-12T07:11:33.442Z,101487.06
2018-01-12T07:12:39.594Z,101492.66
2018-01-12T07:13:45.862Z,101494.82
2018-01-12T07:14:51.839Z,101494.83
2018-01-12T07:15:57.991Z,101494.45
2018-01-12T07:17:04.154Z,101500.00
2018-01-12T07:18:10.316Z,101493.08
2018-01-12T07:19:16.548Z,101496.07
2018-01-12T07:20:33.579Z,101486.98
2018-01-12T07:21:50.683Z,101495.61
2018-01-12T07:23:07.773Z,101496.02
2018-01-12T07:24:13.728Z,101493.39
2018-01-12T07:25:19.978Z,101502.50
2018-01-12T07:26:25.817Z,101502.56
2018-01-12T07:27:31.671Z,101502.13
2018-01-12T07:28:37.864Z,101502.94
2018-01-12T07:29:44.151Z,101506.84
2018-01-12T07:30:50.447Z,101500.88
2018-01-12T07:31:56.660Z,101507.84
2018-01-12T07:33:02.864Z,101514.31
2018-01-12T07:34:09.184Z,101509.98
2018-01-12T07:35:15.402Z,101509.06
2018-01-12T07:36:21.324Z,101516.39
2018-01-12T07:37:27.503Z,101511.60
2018-01-12T07:38:33.687Z,101516.78
2018-01-12T07:39:39.940Z,101519.84
2018-01-12T07:40:46.146Z,101520.69
2018-01-12T07:41:52.340Z,101526.30
2018-01-12T07:42:58.559Z,101528.47
2018-01-12T07:44:04.468Z,101527.64
2018-01-12T07:45:10.688Z,101528.95
2018-01-12T07:46:16.877Z,101528.52
2018-01-12T07:47:23.108Z,101529.34
2018-01-12T07:48:29.301Z,101537.05
2018-01-12T07:49:35.545Z,101531.03
2018-01-12T07:50:41.778Z,101534.03
2018-01-12T07:51:50.424Z,101531.50
2018-01-12T07:53:02.096Z,101534.89
2018-01-12T07:54:07.915Z,101535.76
2018-01-12T07:55:14.139Z,101529.74
2018-01-12T07:56:20.463Z,101537.48
2018-01-12T07:57:26.762Z,101534.92
2018-01-12T07:58:32.971Z,101534.96
2018-01-12T07:59:39.204Z,101529.75
2018-01-12T08:00:50.934Z,101527.16
2018-01-12T08:02:02.728Z,101529.78
2018-01-12T08:03:08.910Z,101531.90
2018-01-12T08:04:15.218Z,101530.62
2018-01-12T08:05:21.652Z,101532.80
2018-01-12T08:06:28.715Z,101527.68
2018-01-12T08:07:34.926Z,101534.63
2018-01-12T08:08:41.140Z,101533.69
2018-01-12T08:09:47.375Z,101529.34
2018-01-12T08:10:53.544Z,101525.48
2018-01-12T08:11:59.713Z,101526.34
2018-01-12T08:13:05.888Z,101530.69
2018-01-12T08:14:12.102Z,101526.38
2018-01-12T08:15:18.329Z,101531.57
2018-01-12T08:16:24.150Z,101529.42
2018-01-12T08:17:30.081Z,101532.05
2018-01-12T08:18:36.239Z,101534.22
2018-01-12T08:19:42.160Z,101534.68
2018-01-12T08:20:48.408Z,101537.25
2018-01-12T08:21:54.582Z,101539.84
2018-01-12T08:23:00.820Z,101544.09
2018-01-12T08:24:07.052Z,101547.44
2018-01-12T08:25:13.309Z,101550.58
2018-01-12T08:26:19.563Z,101559.99
2018-01-12T08:27:25.725Z,101557.41
2018-01-12T08:28:31.988Z,101569.45
2018-01-12T08:29:38.278Z,101564.25
2018-01-12T08:30:44.471Z,101563.78
2018-01-12T08:31:50.718Z,101564.64
2018-01-12T08:32:56.878Z,101564.69
2018-01-12T08:34:03.049Z,101565.48
2018-01-12T08:35:09.244Z,101567.66
2018-01-12T08:36:15.482Z,101559.06
2018-01-12T08:37:21.654Z,101559.89
2018-01-12T08:38:27.945Z,101561.50
2018-01-12T08:39:34.204Z,101565.22
2018-01-12T08:40:40.367Z,101565.69
2018-01-12T08:41:46.580Z,101560.62
2018-01-12T08:42:52.753Z,101561.59
2018-01-12T08:43:58.917Z,101572.04
2018-01-12T08:45:05.126Z,101566.86
2018-01-12T08:46:11.307Z,101568.13
2018-01-12T08:47:19.897Z,101572.80
2018-01-12T08:48:26.087Z,101577.86
2018-01-12T08:49:32.282Z,101581.30
2018-01-12T08:50:38.525Z,101578.32
2018-01-12T08:51:44.748Z,101572.26
2018-01-12T08:52:50.982Z,101579.98
2018-01-12T08:53:57.211Z,101576.91
2018-01-12T08:55:03.422Z,101573.94
2018-01-12T08:56:09.672Z,101576.88
2018-01-12T08:57:15.930Z,101575.55
2018-01-12T08:58:22.110Z,101584.22
2018-01-12T08:59:28.186Z,101586.95
2018-01-12T09:00:34.116Z,101582.28
2018-01-12T09:01:40.003Z,101586.64
2018-01-12T09:02:45.924Z,101589.76
2018-01-12T09:03:52.095Z,101594.82
2018-01-12T09:04:58.246Z,101597.08
2018-01-12T09:06:04.405Z,101595.81
2018-01-12T09:07:10.615Z,101595.86
2018-01-12T09:08:17.415Z,101597.55
2018-01-12T09:09:23.597Z,101592.01
2018-01-12T09:10:29.847Z,101597.64
2018-01-12T09:11:36.223Z,101596.02
2018-01-12T09:12:42.372Z,101596.44
2018-01-12T09:13:59.182Z,101595.56
2018-01-12T09:15:16.214Z,101598.05
2018-01-12T09:16:28.014Z,101602.44
2018-01-12T09:17:45.033Z,101602.53
2018-01-12T09:19:01.912Z,101602.11
2018-01-12T09:20:17.684Z,101601.65
2018-01-12T09:21:25.210Z,101608.09
2018-01-12T09:22:33.264Z,101610.28
2018-01-12T09:23:38.960Z,101606.88
2018-01-12T09:24:46.268Z,101607.72
2018-01-12T09:25:52.518Z,101616.77
2018-01-12T09:26:58.754Z,101609.87
2018-01-12T09:28:04.621Z,101613.33
2018-01-12T09:29:10.835Z,101612.05
2018-01-12T09:30:17.051Z,101616.37
2018-01-12T09:31:34.288Z,101616.37
2018-01-12T09:32:39.539Z,101619.84
2018-01-12T09:33:48.333Z,101618.16
2018-01-12T09:35:01.369Z,101617.28
2018-01-12T09:36:07.526Z,101618.09
2018-01-12T09:37:13.773Z,101621.55
2018-01-12T09:38:20.906Z,101623.31
2018-01-12T09:39:47.875Z,101624.59
2018-01-12T09:40:53.759Z,101621.98
2018-01-12T09:41:59.990Z,101624.96
2018-01-12T09:43:06.195Z,101620.25
2018-01-12T09:44:12.367Z,101626.66
2018-01-12T09:45:18.570Z,101623.67
2018-01-12T09:46:24.751Z,101622.84
2018-01-12T09:47:40.626Z,101624.13
2018-01-12T09:48:47.870Z,101625.89
2018-01-12T09:49:53.314Z,101633.70
2018-01-12T09:50:59.259Z,101629.85
2018-01-12T09:52:09.302Z,101632.44
2018-01-12T09:53:15.507Z,101633.74
2018-01-12T09:54:21.705Z,101636.66
2018-01-12T09:55:27.841Z,101631.09
2018-01-12T09:56:33.770Z,101632.41
2018-01-12T09:57:39.994Z,101633.27
2018-01-12T09:58:45.777Z,101641.55
2018-01-12T09:59:51.335Z,101635.09
2018-01-12T10:00:57.129Z,101638.08
2018-01-12T10:02:03.023Z,101638.48
2018-01-12T10:03:09.230Z,101640.22
2018-01-12T10:04:15.470Z,101641.08
2018-01-12T10:05:21.448Z,101641.52
2018-01-12T10:06:27.680Z,101635.88
2018-01-12T10:07:44.984Z,101633.79
2018-01-12T10:08:58.908Z,101642.02
2018-01-12T10:10:08.798Z,101635.59
2018-01-12T10:11:14.965Z,101634.13
2018-01-12T10:12:21.278Z,101634.58
2018-01-12T10:13:28.317Z,101637.22
2018-01-12T10:14:35.584Z,101632.45
2018-01-12T10:15:42.950Z,101635.50
2018-01-12T10:16:49.750Z,101630.78
2018-01-12T10:17:56.937Z,101637.30
2018-01-12T10:19:15.285Z,101636.41
2018-01-12T10:20:38.579Z,101640.37
2018-01-12T10:21:44.771Z,101644.61
2018-01-12T10:22:50.742Z,101642.80
2018-01-12T10:23:56.692Z,101643.27
2018-01-12T10:25:03.129Z,101645.00
2018-01-12T10:26:09.355Z,101646.34
2018-01-12T10:27:15.595Z,101644.63
2018-01-12T10:28:21.771Z,101646.39
2018-01-12T10:29:31.292Z,101645.11
2018-01-12T10:30:56.791Z,101647.27
2018-01-12T10:32:09.642Z,101639.08
2018-01-12T10:33:19.727Z,101643.02
2018-01-12T10:34:45.359Z,101645.15
2018-01-12T10:35:56.536Z,101646.47
2018-01-12T10:37:03.026Z,101647.28
2018-01-12T10:38:10.671Z,101639.04
2018-01-12T10:39:22.833Z,101638.61
2018-01-12T10:40:48.852Z,101639.53
2018-01-12T10:42:04.712Z,101641.17
2018-01-12T10:43:11.624Z,101639.91
2018-01-12T10:44:19.089Z,101644.27
2018-01-12T10:45:26.121Z,101643.86
2018-01-12T10:46:44.855Z,101644.73
2018-01-12T10:47:54.121Z,101648.52
2018-01-12T10:49:00.549Z,101645.91
2018-01-12T10:50:09.911Z,101649.89
2018-01-12T10:51:21.755Z,101648.53
2018-01-12T10:52:40.528Z,101654.48
2018-01-12T10:53:47.213Z,101649.78
2018-01-12T10:54:54.350Z,101648.55
2018-01-12T10:56:01.506Z,101650.77
2018-01-12T10:57:10.661Z,101654.66
2018-01-12T10:58:18.117Z,101649.88
2018-01-12T10:59:24.719Z,101647.70
2018-01-12T11:00:33.092Z,101646.88
2018-01-12T11:01:40.080Z,101643.87
2018-01-12T11:02:48.150Z,101647.39
2018-01-12T11:03:54.874Z,101649.58
2018-01-12T11:05:01.864Z,101651.29
2018-01-12T11:06:08.955Z,101652.16
2018-01-12T11:07:16.572Z,101655.59
2018-01-12T11:08:23.985Z,101650.84
2018-01-12T11:09:31.313Z,101656.94
2018-01-12T11:10:39.016Z,101658.24
2018-01-12T11:11:45.601Z,101661.17
2018-01-12T11:12:52.123Z,101661.07
2018-01-12T11:13:58.121Z,101652.91
2018-01-12T11:15:04.001Z,101655.09
2018-01-12T11:16:10.200Z,101649.03
2018-01-12T11:17:16.396Z,101652.09
2018-01-12T11:18:27.564Z,101648.20
2018-01-12T11:19:33.725Z,101652.58
2018-01-12T11:20:39.889Z,101653.05
2018-01-12T11:21:46.134Z,101653.06
2018-01-12T11:22:52.362Z,101653.05
2018-01-12T11:23:58.548Z,101646.56
2018-01-12T11:25:04.777Z,101653.92
2018-01-12T11:26:10.941Z,101645.70
2018-01-12T11:27:17.134Z,101650.90
2018-01-12T11:28:23.347Z,101650.02
2018-01-12T11:29:29.555Z,101641.38
2018-01-12T11:30:35.800Z,101650.05
2018-01-12T11:31:42.037Z,101651.30
2018-01-12T11:32:48.236Z,101645.27
2018-01-12T11:33:54.435Z,101642.66
2018-01-12T11:35:00.620Z,101647.41
2018-01-12T11:36:06.610Z,101646.13
2018-01-12T11:37:12.771Z,101645.65
2018-01-12T11:38:19.075Z,101649.56
2018-01-12T11:39:25.273Z,101647.43
2018-01-12T11:40:31.956Z,101644.83
2018-01-12T11:41:39.911Z,101646.98
2018-01-12T11:42:46.069Z,101642.64
2018-01-12T11:43:52.303Z,101649.09
2018-01-12T11:44:58.794Z,101647.41
2018-01-12T11:46:06.402Z,101648.27
2018-01-12T11:47:12.685Z,101648.71
2018-01-12T11:48:18.907Z,101647.34
2018-01-12T11:49:25.159Z,101646.89
2018-01-12T11:50:31.300Z,101642.19
2018-01-12T11:51:37.510Z,101652.17
2018-01-12T11:52:44.518Z,101648.33
2018-01-12T11:53:50.696Z,101648.72
2018-01-12T11:54:56.998Z,101647.41
2018-01-12T11:56:03.238Z,101646.11
2018-01-12T11:57:14.753Z,101645.28
2018-01-12T11:58:20.981Z,101646.58
2018-01-12T11:59:28.559Z,101642.25
2018-01-12T12:00:34.245Z,101643.09
2018-01-12T12:01:40.499Z,101646.98
2018-01-12T12:02:46.712Z,101648.30
2018-01-12T12:03:52.911Z,101646.99
2018-01-12T12:04:59.147Z,101645.30
2018-01-12T12:06:05.334Z,101641.84
2018-01-12T12:07:11.751Z,101644.44
2018-01-12T12:08:17.938Z,101642.70
2018-01-12T12:09:24.178Z,101641.41
2018-01-12T12:10:30.357Z,101646.61
2018-01-12T12:11:36.827Z,101634.05
2018-01-12T12:12:43.396Z,101637.50
2018-01-12T12:13:49.649Z,101641.42
2018-01-12T12:14:55.894Z,101637.98
2018-01-12T12:16:02.098Z,101641.89
2018-01-12T12:17:08.293Z,101635.80
2018-01-12T12:18:14.459Z,101644.01
2018-01-12T12:19:20.697Z,101638.83
2018-01-12T12:20:26.869Z,101644.48
2018-01-12T12:21:33.081Z,101639.72
2018-01-12T12:22:39.320Z,101640.16
2018-01-12T12:23:45.515Z,101645.78
2018-01-12T12:24:51.736Z,101644.05
2018-01-12T12:25:57.882Z,101647.07
2018-01-12T12:27:04.040Z,101648.80
2018-01-12T12:28:10.273Z,101646.14
2018-01-12T12:29:16.529Z,101651.78
2018-01-12T12:30:22.697Z,101648.33
2018-01-12T12:31:29.021Z,101643.99
2018-01-12T12:32:35.225Z,101644.81
2018-01-12T12:33:41.369Z,101645.27
2018-01-12T12:34:47.540Z,101644.00
2018-01-12T12:35:53.778Z,101647.43
2018-01-12T12:36:59.940Z,101643.13
2018-01-12T12:38:06.158Z,101644.87
2018-01-12T12:39:12.343Z,101646.55
2018-01-12T12:40:18.569Z,101639.22
2018-01-12T12:41:24.781Z,101643.55
2018-01-12T12:42:31.298Z,101645.18
2018-01-12T12:43:37.485Z,101646.05
2018-01-12T12:44:43.661Z,101647.33